Time;durP1;ratioP1;P1;durP2;ratioP2;P2;SDS_P1;SDS_P2;PMS_P1;PMS_P2;Temp;Humidity;BMP_temperature;BMP_pressure;BME280_temperature;BME280_humidity;BME280_pressure;Samples;Min_cycle;Max_cycle;Signal;HPM_P1;HPM_P2
2022/09/15 00:00:45;;;;;;;3.00;1.40;;;15.80;75.60;;;;;;5091689;28;20035;-64
2022/09/15 00:03:12;;;;;;;3.13;1.70;;;15.80;75.70;;;;;;5089954;28;20499;-66
2022/09/15 00:05:38;;;;;;;1.73;1.55;;;15.80;75.70;;;;;;5091737;28;20394;-65
2022/09/15 00:08:03;;;;;;;1.25;1.15;;;15.90;75.70;;;;;;5092354;28;20040;-63
2022/09/15 00:10:29;;;;;;;1.42;0.90;;;15.90;75.80;;;;;;5091528;28;20031;-65
2022/09/15 00:12:55;;;;;;;2.75;1.20;;;16.00;76.00;;;;;;5090970;28;20028;-66
2022/09/15 00:15:22;;;;;;;2.58;2.15;;;16.00;76.10;;;;;;5091795;28;20028;-64
2022/09/15 00:17:50;;;;;;;4.20;1.38;;;16.00;76.30;;;;;;5092433;28;20425;-64
2022/09/15 00:20:20;;;;;;;2.63;2.05;;;16.00;76.40;;;;;;5091533;28;20451;-64
2022/09/15 00:22:47;;;;;;;1.98;1.65;;;16.10;76.60;;;;;;5092042;28;20536;-65
2022/09/15 00:25:14;;;;;;;2.15;1.92;;;16.20;76.60;;;;;;5092217;28;20028;-65
2022/09/15 00:27:40;;;;;;;2.33;1.70;;;16.20;76.70;;;;;;5091659;28;20032;-65
2022/09/15 00:30:07;;;;;;;3.05;1.80;;;16.20;76.70;;;;;;5091979;28;20024;-65
2022/09/15 00:32:33;;;;;;;2.83;1.95;;;16.30;77.00;;;;;;5089798;28;20028;-65
2022/09/15 00:34:59;;;;;;;3.03;1.60;;;16.30;77.00;;;;;;5091839;28;20483;-65
2022/09/15 00:37:24;;;;;;;4.55;2.17;;;16.40;77.10;;;;;;5078800;28;20478;-65
2022/09/15 00:39:52;;;;;;;4.63;2.15;;;16.40;77.10;;;;;;5088521;28;20043;-65
2022/09/15 00:42:19;;;;;;;3.60;2.55;;;16.40;77.20;;;;;;5080976;28;20119;-65
2022/09/15 00:44:45;;;;;;;3.00;1.95;;;16.50;77.40;;;;;;5087854;28;20028;-69
2022/09/15 00:47:11;;;;;;;2.55;2.05;;;16.50;77.60;;;;;;5091592;28;20035;-69
2022/09/15 00:49:39;;;;;;;3.70;2.22;;;16.50;77.80;;;;;;5090897;28;20032;-69
2022/09/15 00:52:10;;;;;;;3.13;2.35;;;16.60;77.90;;;;;;5089270;28;20016;-69
2022/09/15 00:54:51;;;;;;;2.88;2.00;;;16.60;78.00;;;;;;5091322;28;20099;-69
2022/09/15 00:57:41;;;;;;;3.13;1.55;;;16.70;77.90;;;;;;5078763;28;20111;-69
2022/09/15 01:00:11;;;;;;;2.88;2.00;;;16.70;78.00;;;;;;5091194;28;20494;-65
2022/09/15 01:02:41;;;;;;;2.70;1.77;;;16.70;78.20;;;;;;5089645;28;20077;-65
2022/09/15 01:05:10;;;;;;;3.47;2.03;;;16.70;78.30;;;;;;5091220;28;20244;-70
2022/09/15 01:07:54;;;;;;;2.13;1.77;;;16.70;78.40;;;;;;5090453;28;20039;-69
2022/09/15 01:10:36;;;;;;;4.32;2.63;;;16.70;78.30;;;;;;5087302;28;20429;-69
2022/09/15 01:13:05;;;;;;;1.90;1.55;;;16.70;78.40;;;;;;5090243;28;20102;-65
2022/09/15 01:15:49;;;;;;;2.33;1.70;;;16.70;78.40;;;;;;5089444;28;20051;-65
2022/09/15 01:18:19;;;;;;;3.35;2.20;;;16.70;78.30;;;;;;5091475;28;20482;-65
2022/09/15 01:20:57;;;;;;;4.05;2.20;;;16.70;78.40;;;;;;5089398;28;20032;-70
2022/09/15 01:23:44;;;;;;;1.45;1.33;;;16.70;78.40;;;;;;5091033;28;20029;-65
2022/09/15 01:26:39;;;;;;;1.20;1.10;;;16.70;78.40;;;;;;5079166;28;20379;-65
2022/09/15 01:29:23;;;;;;;1.70;1.08;;;16.70;78.30;;;;;;5090955;28;20055;-70
2022/09/15 01:34:47;;;;;;;2.33;1.33;;;16.60;78.40;;;;;;5070534;28;20098;-65
2022/09/15 01:37:19;;;;;;;2.65;1.83;;;16.60;78.40;;;;;;5073753;28;20035;-65
2022/09/15 01:39:49;;;;;;;1.95;1.40;;;16.60;78.30;;;;;;5081399;28;20548;-65
2022/09/15 01:42:17;;;;;;;3.15;1.20;;;16.60;78.30;;;;;;5078384;28;20032;-65
2022/09/15 01:44:50;;;;;;;1.90;1.70;;;16.50;78.20;;;;;;5082752;28;20024;-65
2022/09/15 01:47:19;;;;;;;1.98;1.63;;;16.50;78.20;;;;;;5070223;28;20275;-70
2022/09/15 01:49:52;;;;;;;2.03;1.55;;;16.50;78.30;;;;;;5083234;28;20387;-69
2022/09/15 01:52:21;;;;;;;1.98;1.42;;;16.50;78.40;;;;;;5068892;28;20016;-69
2022/09/15 01:54:51;;;;;;;1.48;1.38;;;16.50;78.50;;;;;;5083829;28;20043;-70
2022/09/15 01:57:20;;;;;;;1.65;1.30;;;16.50;78.50;;;;;;5075625;28;20036;-70
2022/09/15 01:59:47;;;;;;;5.63;1.67;;;16.50;78.50;;;;;;5077572;28;20024;-69
2022/09/15 02:02:27;;;;;;;3.00;1.45;;;16.50;78.40;;;;;;5071077;28;20108;-69
2022/09/15 02:05:00;;;;;;;4.00;1.63;;;16.50;78.50;;;;;;5074922;28;20062;-69
2022/09/15 02:07:50;;;;;;;1.42;1.05;;;16.50;78.60;;;;;;5079848;28;20036;-69
2022/09/15 02:10:40;;;;;;;2.03;1.42;;;16.50;78.40;;;;;;5072231;28;20035;-65
2022/09/15 02:13:15;;;;;;;3.25;1.55;;;16.50;78.40;;;;;;5077685;28;20024;-65
2022/09/15 02:15:50;;;;;;;2.40;2.20;;;16.50;78.50;;;;;;5072143;28;20129;-66
2022/09/15 02:18:45;;;;;;;1.92;1.40;;;16.50;78.70;;;;;;5075911;28;20066;-64
2022/09/15 02:21:19;;;;;;;1.55;1.45;;;16.50;78.70;;;;;;5062063;28;20062;-64
2022/09/15 02:23:51;;;;;;;2.13;1.60;;;16.50;78.80;;;;;;5087729;28;20232;-64
2022/09/15 02:26:23;;;;;;;5.32;1.55;;;16.50;78.80;;;;;;5069243;28;20055;-65
2022/09/15 02:28:50;;;;;;;1.13;1.02;;;16.50;78.70;;;;;;5069797;28;20029;-64
2022/09/15 02:31:19;;;;;;;2.30;1.60;;;16.50;78.70;;;;;;5077369;28;20021;-69
2022/09/15 02:33:51;;;;;;;3.05;2.03;;;16.50;78.70;;;;;;5078553;28;20016;-69
2022/09/15 02:36:19;;;;;;;1.73;1.30;;;16.50;78.70;;;;;;5080678;28;20025;-69
2022/09/15 02:38:57;;;;;;;1.52;1.42;;;16.40;78.80;;;;;;5085465;28;20028;-69
2022/09/15 02:41:23;;;;;;;1.60;1.50;;;16.40;78.80;;;;;;5086957;28;20063;-69
2022/09/15 02:43:49;;;;;;;2.72;1.60;;;16.30;78.80;;;;;;5085048;28;20507;-69
2022/09/15 02:46:21;;;;;;;3.65;1.65;;;16.30;78.90;;;;;;5082927;28;20020;-69
2022/09/15 02:48:47;;;;;;;2.53;1.87;;;16.30;79.00;;;;;;5078623;28;20016;-69
2022/09/15 02:51:13;;;;;;;2.67;1.90;;;16.30;79.00;;;;;;5080871;28;20262;-69
2022/09/15 02:53:39;;;;;;;2.40;1.45;;;16.20;79.10;;;;;;5066178;28;20140;-69
2022/09/15 02:56:05;;;;;;;3.70;2.15;;;16.20;79.10;;;;;;5069483;28;20062;-69
2022/09/15 02:58:32;;;;;;;3.35;2.45;;;16.20;79.10;;;;;;5065907;28;20494;-68
2022/09/15 03:01:00;;;;;;;2.78;1.90;;;16.10;79.20;;;;;;5068969;28;20455;-65
2022/09/15 03:03:25;;;;;;;3.40;2.30;;;16.10;79.20;;;;;;5065430;28;20052;-64
2022/09/15 03:05:51;;;;;;;4.68;3.10;;;16.10;79.20;;;;;;5067278;28;20063;-65
2022/09/15 03:08:16;;;;;;;1.70;1.60;;;16.20;79.30;;;;;;5066954;28;20060;-64
2022/09/15 03:10:42;;;;;;;2.20;1.95;;;16.10;79.20;;;;;;5067240;28;20037;-64
2022/09/15 03:13:08;;;;;;;3.22;1.98;;;16.10;79.20;;;;;;5082417;28;20024;-65
2022/09/15 03:15:33;;;;;;;3.13;1.73;;;16.10;79.20;;;;;;5077909;28;20059;-64
2022/09/15 03:18:00;;;;;;;2.20;1.75;;;16.10;79.10;;;;;;5091759;28;20111;-64
2022/09/15 03:20:27;;;;;;;1.33;1.23;;;16.10;79.10;;;;;;5081286;28;20040;-66
2022/09/15 03:22:53;;;;;;;3.60;2.47;;;16.10;79.10;;;;;;5080937;28;20444;-65
2022/09/15 03:25:20;;;;;;;5.15;2.47;;;16.10;79.10;;;;;;5083835;28;20036;-65
2022/09/15 03:27:46;;;;;;;3.38;2.30;;;16.10;79.20;;;;;;5086018;28;20413;-65
2022/09/15 03:30:13;;;;;;;1.85;1.38;;;16.10;79.20;;;;;;5090893;28;20020;-65
2022/09/15 03:32:38;;;;;;;1.63;1.40;;;16.10;79.20;;;;;;5082367;28;20039;-66
2022/09/15 03:35:05;;;;;;;2.65;1.50;;;16.10;79.20;;;;;;5075581;28;20024;-65
2022/09/15 03:37:31;;;;;;;2.25;1.60;;;16.00;79.30;;;;;;5083594;28;20039;-66
2022/09/15 03:39:57;;;;;;;3.30;1.90;;;16.00;79.60;;;;;;5094600;28;20028;-64
2022/09/15 03:42:23;;;;;;;4.22;1.60;;;16.00;79.50;;;;;;5095530;28;20032;-65
2022/09/15 03:44:48;;;;;;;1.45;1.35;;;16.00;79.50;;;;;;5095369;28;20043;-65
2022/09/15 03:47:14;;;;;;;1.52;1.42;;;16.00;79.40;;;;;;5095507;28;20522;-63
2022/09/15 03:49:40;;;;;;;2.90;1.50;;;16.10;79.40;;;;;;5084893;28;20506;-70
2022/09/15 03:52:05;;;;;;;1.55;1.33;;;16.10;79.40;;;;;;5081953;28;20082;-69
2022/09/15 03:54:31;;;;;;;2.47;1.75;;;16.10;79.40;;;;;;5095649;28;20090;-69
2022/09/15 03:56:57;;;;;;;6.40;2.13;;;16.10;79.30;;;;;;5095084;28;20101;-69
2022/09/15 03:59:22;;;;;;;5.18;1.50;;;16.20;79.30;;;;;;5095233;28;20050;-69
2022/09/15 04:01:49;;;;;;;4.53;2.47;;;16.20;79.20;;;;;;5094638;28;20125;-69
2022/09/15 04:04:16;;;;;;;2.05;1.60;;;16.20;79.20;;;;;;5094382;28;20062;-69
2022/09/15 04:06:43;;;;;;;3.00;2.10;;;16.20;79.10;;;;;;5088176;28;20419;-68
2022/09/15 04:09:09;;;;;;;1.90;1.75;;;16.20;79.10;;;;;;5080309;28;20433;-68
2022/09/15 04:11:35;;;;;;;2.38;2.00;;;16.20;79.30;;;;;;5089271;28;20028;-64
2022/09/15 04:14:01;;;;;;;1.40;1.20;;;16.20;79.30;;;;;;5084876;28;20509;-64
2022/09/15 04:16:27;;;;;;;1.45;1.27;;;16.20;79.30;;;;;;5075870;28;20024;-69
2022/09/15 04:18:54;;;;;;;1.52;1.42;;;16.20;79.30;;;;;;5085367;28;20024;-69
2022/09/15 04:21:22;;;;;;;1.88;1.55;;;16.20;79.20;;;;;;5077589;28;20097;-69
2022/09/15 04:23:48;;;;;;;3.33;2.22;;;16.20;79.20;;;;;;5074792;28;20375;-69
2022/09/15 04:26:30;;;;;;;3.15;1.40;;;16.20;79.20;;;;;;5080515;28;20060;-69
2022/09/15 04:28:56;;;;;;;3.53;1.45;;;16.30;79.20;;;;;;5078989;28;20457;-69
2022/09/15 04:31:22;;;;;;;2.05;1.63;;;16.30;79.30;;;;;;5078314;28;20494;-69
2022/09/15 04:33:50;;;;;;;4.18;1.85;;;16.30;79.20;;;;;;5079326;28;20090;-69
2022/09/15 04:36:19;;;;;;;2.47;1.33;;;16.30;79.20;;;;;;5074926;28;20032;-69
2022/09/15 04:38:46;;;;;;;0.80;0.80;;;16.30;79.20;;;;;;5080888;28;20475;-69
2022/09/15 04:41:13;;;;;;;3.28;1.55;;;16.30;79.10;;;;;;5090912;28;20032;-69
2022/09/15 04:43:39;;;;;;;1.55;1.40;;;16.40;79.20;;;;;;5091297;28;20020;-70
2022/09/15 04:46:05;;;;;;;2.58;1.33;;;16.40;79.10;;;;;;5081374;28;20034;-70
2022/09/15 04:48:31;;;;;;;2.75;1.63;;;16.40;79.10;;;;;;5085705;28;20020;-70
2022/09/15 04:51:01;;;;;;;2.00;1.60;;;16.40;79.10;;;;;;5084476;28;20103;-69
2022/09/15 04:53:27;;;;;;;3.13;1.45;;;16.40;79.10;;;;;;5067898;28;20471;-69
2022/09/15 04:56:03;;;;;;;1.27;1.10;;;16.40;79.10;;;;;;5084592;28;20620;-70
2022/09/15 04:58:29;;;;;;;2.15;1.42;;;16.40;79.10;;;;;;5084068;28;20493;-69
2022/09/15 05:00:55;;;;;;;0.82;0.82;;;16.40;79.10;;;;;;5085287;28;20036;-69
2022/09/15 05:03:21;;;;;;;1.40;0.88;;;16.40;79.00;;;;;;5084624;28;20051;-69
2022/09/15 05:05:46;;;;;;;1.63;1.17;;;16.40;79.00;;;;;;5078341;28;20036;-69
2022/09/15 05:08:12;;;;;;;2.80;1.40;;;16.40;79.00;;;;;;5076819;28;20028;-69
2022/09/15 05:10:38;;;;;;;1.45;1.20;;;16.40;79.10;;;;;;5072868;28;20055;-69
2022/09/15 05:13:04;;;;;;;1.00;0.90;;;16.50;79.20;;;;;;5077577;28;20098;-69
2022/09/15 05:15:29;;;;;;;0.70;0.70;;;16.40;79.10;;;;;;5077446;28;20040;-69
2022/09/15 05:17:55;;;;;;;3.40;1.23;;;16.40;79.00;;;;;;5078732;28;20139;-65
2022/09/15 05:20:21;;;;;;;0.90;0.90;;;16.50;79.10;;;;;;5085131;28;20055;-66
2022/09/15 05:22:47;;;;;;;1.80;0.90;;;16.50;79.00;;;;;;5075694;28;20105;-65
2022/09/15 05:25:12;;;;;;;0.50;0.50;;;16.50;79.00;;;;;;5071879;28;20086;-64
2022/09/15 05:27:38;;;;;;;1.52;0.85;;;16.50;79.00;;;;;;5068970;28;20365;-65
2022/09/15 05:30:05;;;;;;;3.83;1.40;;;16.50;79.00;;;;;;5085853;28;20314;-64
2022/09/15 05:32:31;;;;;;;1.67;0.80;;;16.50;78.90;;;;;;5082648;28;20596;-64
2022/09/15 05:34:57;;;;;;;1.70;1.15;;;16.50;79.00;;;;;;5081067;28;20021;-65
2022/09/15 05:37:22;;;;;;;1.23;0.80;;;16.50;79.00;;;;;;5074386;28;20395;-65
2022/09/15 05:39:48;;;;;;;1.27;0.90;;;16.40;78.90;;;;;;5091427;28;20157;-65
2022/09/15 05:42:14;;;;;;;2.80;1.27;;;16.50;78.90;;;;;;5090486;28;20032;-65
2022/09/15 05:44:40;;;;;;;1.42;0.90;;;16.50;78.90;;;;;;5090072;28;20047;-65
2022/09/15 05:47:05;;;;;;;1.90;0.93;;;16.50;79.30;;;;;;5090624;28;20111;-65
2022/09/15 05:49:31;;;;;;;1.45;0.80;;;16.50;78.70;;;;;;5088549;28;20032;-65
2022/09/15 05:51:57;;;;;;;0.70;0.70;;;16.50;78.70;;;;;;5088048;28;20473;-65
2022/09/15 05:54:23;;;;;;;1.38;0.95;;;16.50;78.70;;;;;;5088705;28;20048;-65
2022/09/15 05:56:48;;;;;;;0.75;0.60;;;16.50;78.70;;;;;;5100132;28;20032;-69
2022/09/15 05:59:14;;;;;;;1.10;0.80;;;16.50;78.70;;;;;;5090082;28;20039;-69
2022/09/15 06:01:39;;;;;;;1.58;1.40;;;16.50;78.70;;;;;;5098576;28;20035;-69
2022/09/15 06:04:05;;;;;;;1.60;0.95;;;16.40;78.70;;;;;;5081476;28;20048;-69
2022/09/15 06:06:32;;;;;;;1.35;1.00;;;16.40;78.60;;;;;;5071151;28;20036;-69
2022/09/15 06:08:59;;;;;;;0.88;0.88;;;16.50;78.60;;;;;;5071968;28;20081;-69
2022/09/15 06:11:29;;;;;;;1.38;0.90;;;16.50;78.50;;;;;;5099786;28;20389;-69
2022/09/15 06:13:58;;;;;;;1.85;1.25;;;16.60;78.50;;;;;;5071269;28;20539;-69
2022/09/15 06:16:24;;;;;;;1.23;1.00;;;16.60;78.40;;;;;;5086042;28;20039;-69
2022/09/15 06:18:51;;;;;;;2.13;1.10;;;16.60;78.40;;;;;;5082313;28;20028;-69
2022/09/15 06:21:19;;;;;;;2.33;1.13;;;16.60;78.30;;;;;;5078470;28;20476;-69
2022/09/15 06:23:45;;;;;;;1.00;0.93;;;16.60;78.30;;;;;;5082093;28;20031;-69
2022/09/15 06:26:17;;;;;;;1.38;0.85;;;16.60;78.90;;;;;;5081140;28;20024;-69
2022/09/15 06:29:01;;;;;;;;;;;16.70;78.30;;;;;;5090319;28;20028;-69
2022/09/15 06:31:30;;;;;;;1.33;1.20;;;16.70;78.20;;;;;;5075601;28;20291;-69
2022/09/15 06:33:56;;;;;;;1.45;0.95;;;16.60;78.00;;;;;;5069045;28;20105;-69
2022/09/15 06:36:25;;;;;;;3.17;1.33;;;16.70;77.90;;;;;;5070267;28;20036;-70
2022/09/15 06:38:51;;;;;;;1.02;0.88;;;16.70;77.70;;;;;;5079428;28;20112;-70
2022/09/15 06:41:16;;;;;;;1.65;0.95;;;16.80;77.60;;;;;;5087450;28;20027;-69
2022/09/15 06:43:43;;;;;;;1.15;0.93;;;16.90;77.40;;;;;;5094442;28;20475;-69
2022/09/15 06:46:17;;;;;;;0.88;0.70;;;17.00;77.30;;;;;;5088689;28;20028;-69
2022/09/15 06:48:43;;;;;;;1.20;1.10;;;17.00;77.00;;;;;;5088233;28;20020;-65
2022/09/15 06:51:11;;;;;;;0.82;0.68;;;17.10;76.90;;;;;;5086936;28;20045;-65
2022/09/15 06:53:38;;;;;;;0.90;0.80;;;17.20;76.80;;;;;;5083100;28;20475;-65
2022/09/15 06:56:15;;;;;;;1.63;0.70;;;17.20;76.60;;;;;;5089383;28;20459;-65
2022/09/15 06:58:42;;;;;;;3.55;0.60;;;17.30;76.20;;;;;;5086875;28;20470;-65
2022/09/15 07:01:11;;;;;;;1.90;1.00;;;17.20;76.20;;;;;;5084521;28;20020;-65
2022/09/15 07:03:38;;;;;;;0.95;0.50;;;17.20;76.20;;;;;;5068807;28;20045;-69
2022/09/15 07:06:05;;;;;;;0.52;0.52;;;17.20;76.20;;;;;;5074269;28;20040;-65
2022/09/15 07:08:31;;;;;;;1.08;0.60;;;17.20;76.10;;;;;;5085425;28;20051;-70
2022/09/15 07:10:57;;;;;;;2.20;0.95;;;17.30;76.00;;;;;;5070841;28;20059;-69
2022/09/15 07:13:23;;;;;;;0.60;0.60;;;17.30;75.80;;;;;;5075836;28;20052;-65
2022/09/15 07:15:55;;;;;;;0.60;0.60;;;17.30;75.50;;;;;;5070983;28;20459;-69
2022/09/15 07:18:21;;;;;;;1.25;0.80;;;17.40;75.80;;;;;;5083246;28;20399;-69
2022/09/15 07:20:47;;;;;;;0.80;0.80;;;17.50;75.40;;;;;;5070123;28;20025;-70
2022/09/15 07:23:13;;;;;;;1.77;1.13;;;17.50;75.30;;;;;;5084041;28;20477;-65
2022/09/15 07:25:42;;;;;;;1.95;1.02;;;17.60;75.20;;;;;;5077490;28;20043;-69
2022/09/15 07:28:09;;;;;;;1.23;1.05;;;17.60;74.90;;;;;;5086514;28;20044;-69
2022/09/15 07:30:35;;;;;;;0.70;0.60;;;17.60;74.80;;;;;;5067890;28;20107;-69
2022/09/15 07:33:00;;;;;;;2.70;0.77;;;17.70;74.80;;;;;;5066591;28;20108;-66
2022/09/15 07:35:26;;;;;;;2.13;0.95;;;17.70;74.60;;;;;;5074316;28;20028;-65
2022/09/15 07:37:52;;;;;;;0.50;0.50;;;17.80;74.20;;;;;;5078482;28;20028;-65
2022/09/15 07:40:17;;;;;;;0.50;0.50;;;17.80;73.80;;;;;;5102702;28;20148;-70
2022/09/15 07:42:43;;;;;;;1.77;0.30;;;17.80;73.60;;;;;;5089953;28;20099;-70
2022/09/15 07:45:12;;;;;;;0.88;0.80;;;17.80;73.30;;;;;;5084930;28;20100;-70
2022/09/15 07:47:38;;;;;;;2.55;1.25;;;17.80;73.10;;;;;;5086734;28;20043;-66
2022/09/15 07:50:05;;;;;;;2.10;0.90;;;17.80;72.70;;;;;;5081290;28;20715;-70
2022/09/15 07:52:31;;;;;;;3.38;0.68;;;17.80;72.70;;;;;;5083718;28;20055;-70
2022/09/15 07:54:56;;;;;;;0.65;0.60;;;17.90;72.60;;;;;;5086828;28;20056;-65
2022/09/15 07:57:22;;;;;;;0.55;0.35;;;18.00;72.50;;;;;;5092407;28;20036;-66
2022/09/15 07:59:48;;;;;;;0.68;0.63;;;18.10;72.20;;;;;;5095465;28;20481;-70
2022/09/15 08:02:19;;;;;;;0.73;0.70;;;18.30;71.30;;;;;;5079678;28;20041;-69
2022/09/15 08:04:45;;;;;;;0.45;0.45;;;18.40;71.00;;;;;;5081547;28;21368;-69
2022/09/15 08:07:11;;;;;;;5.18;1.35;;;18.50;70.00;;;;;;5080543;28;20471;-69
2022/09/15 08:09:38;;;;;;;1.30;0.70;;;18.40;69.60;;;;;;5080663;28;20029;-70
2022/09/15 08:12:05;;;;;;;0.63;0.47;;;18.30;69.80;;;;;;5077052;28;20509;-69
2022/09/15 08:14:31;;;;;;;1.52;0.93;;;18.20;70.00;;;;;;5075934;28;20108;-69
2022/09/15 08:16:59;;;;;;;0.47;0.47;;;18.10;70.40;;;;;;5082802;28;20029;-70
2022/09/15 08:19:29;;;;;;;1.10;0.70;;;18.10;70.90;;;;;;5079510;28;20028;-70
2022/09/15 08:21:54;;;;;;;1.05;0.80;;;18.10;71.20;;;;;;5079700;28;20063;-66
2022/09/15 08:24:21;;;;;;;0.40;0.30;;;18.10;71.40;;;;;;5085142;28;21287;-66
2022/09/15 08:26:47;;;;;;;0.43;0.43;;;18.10;72.10;;;;;;5080648;28;20365;-71
2022/09/15 08:29:13;;;;;;;0.85;0.68;;;18.20;71.70;;;;;;5079586;28;20075;-69
2022/09/15 08:31:39;;;;;;;1.73;0.70;;;18.20;71.60;;;;;;5086275;28;20048;-69
2022/09/15 08:34:05;;;;;;;1.30;0.98;;;18.20;71.70;;;;;;5074829;28;20971;-66
2022/09/15 08:36:34;;;;;;;3.50;0.90;;;18.10;71.50;;;;;;5087344;28;20176;-69
2022/09/15 08:39:01;;;;;;;0.30;0.30;;;18.20;71.40;;;;;;5083022;28;20024;-69
2022/09/15 08:41:34;;;;;;;0.57;0.40;;;18.20;71.50;;;;;;5090184;28;20689;-69
2022/09/15 08:44:21;;;;;;;0.65;0.63;;;18.30;71.40;;;;;;5091709;28;20024;-69
2022/09/15 08:47:05;;;;;;;0.43;0.43;;;18.30;71.20;;;;;;5091273;28;20470;-66
2022/09/15 08:49:41;;;;;;;0.95;0.60;;;18.40;71.10;;;;;;5083901;28;20028;-66
2022/09/15 08:52:15;;;;;;;1.30;0.68;;;18.50;70.80;;;;;;5077771;28;20099;-68
2022/09/15 08:54:40;;;;;;;1.10;0.40;;;18.60;70.00;;;;;;5085339;28;20103;-70
2022/09/15 08:57:13;;;;;;;1.98;0.60;;;18.60;70.00;;;;;;5092129;28;20553;-69
2022/09/15 08:59:39;;;;;;;0.30;0.30;;;18.60;69.70;;;;;;5091233;28;20016;-68
2022/09/15 09:02:28;;;;;;;0.40;0.38;;;18.70;69.70;;;;;;5091405;28;20513;-69
2022/09/15 09:05:28;;;;;;;2.63;0.55;;;18.70;69.50;;;;;;5091392;28;20056;-68
2022/09/15 09:08:13;;;;;;;2.10;0.75;;;18.80;68.60;;;;;;5079886;28;20032;-68
2022/09/15 09:11:09;;;;;;;0.55;0.40;;;18.80;68.40;;;;;;5089786;28;20035;-67
2022/09/15 09:13:48;;;;;;;0.38;0.30;;;18.90;68.50;;;;;;5091441;28;20028;-68
2022/09/15 09:16:48;;;;;;;3.03;0.95;;;19.00;67.70;;;;;;5090800;28;20090;-70
2022/09/15 09:19:33;;;;;;;0.75;0.30;;;19.10;67.00;;;;;;5093144;28;20034;-70
2022/09/15 09:22:08;;;;;;;0.40;0.30;;;19.10;66.40;;;;;;5090506;28;20043;-70
2022/09/15 09:24:43;;;;;;;1.85;0.40;;;19.10;66.60;;;;;;5091178;28;20034;-70
2022/09/15 09:27:27;;;;;;;0.73;0.50;;;19.30;66.50;;;;;;5090502;28;20031;-70
2022/09/15 09:30:13;;;;;;;0.60;0.30;;;19.40;65.70;;;;;;5097893;28;20588;-70
2022/09/15 09:33:01;;;;;;;0.70;0.70;;;19.40;64.60;;;;;;5085624;28;20027;-70
2022/09/15 09:35:45;;;;;;;0.30;0.30;;;19.50;64.40;;;;;;5081967;28;20498;-68
2022/09/15 09:38:18;;;;;;;1.10;0.50;;;19.50;63.20;;;;;;5080106;28;20027;-69
2022/09/15 09:40:44;;;;;;;0.30;0.30;;;19.40;63.20;;;;;;5088527;28;20035;-68
2022/09/15 09:43:10;;;;;;;0.22;0.20;;;19.40;63.00;;;;;;5083499;28;20024;-69
2022/09/15 09:45:36;;;;;;;2.92;1.05;;;19.40;63.10;;;;;;5090141;28;20501;-65
2022/09/15 09:48:19;;;;;;;0.40;0.40;;;19.50;63.30;;;;;;5091042;28;20028;-65
2022/09/15 09:50:45;;;;;;;2.47;0.47;;;19.60;63.30;;;;;;5089059;28;20479;-65
2022/09/15 09:53:26;;;;;;;0.47;0.47;;;19.60;63.40;;;;;;5089083;28;20024;-65
2022/09/15 09:56:32;;;;;;;0.45;0.45;;;19.50;62.20;;;;;;5090093;28;20020;-65
2022/09/15 09:58:58;;;;;;;1.13;0.55;;;19.50;62.60;;;;;;5087556;28;20557;-64
2022/09/15 10:01:25;;;;;;;0.45;0.43;;;19.40;62.80;;;;;;5088037;28;20118;-65
2022/09/15 10:04:16;;;;;;;0.70;0.32;;;19.50;62.50;;;;;;5093304;28;20052;-65
2022/09/15 10:06:42;;;;;;;0.83;0.70;;;19.50;62.20;;;;;;5081233;28;20436;-66
2022/09/15 10:09:14;;;;;;;3.05;0.88;;;19.40;62.00;;;;;;5084209;28;20316;-65
2022/09/15 10:11:42;;;;;;;0.85;0.47;;;19.40;62.20;;;;;;5091395;28;20034;-65
2022/09/15 10:14:18;;;;;;;0.20;0.20;;;19.40;61.80;;;;;;5086631;28;20024;-65
2022/09/15 10:17:05;;;;;;;2.92;0.40;;;19.40;61.50;;;;;;5085893;28;20042;-68
2022/09/15 10:19:42;;;;;;;1.38;0.20;;;19.30;61.10;;;;;;5080933;28;20024;-69
2022/09/15 10:22:08;;;;;;;0.38;0.38;;;19.30;60.70;;;;;;5073104;28;20098;-69
2022/09/15 10:24:38;;;;;;;1.85;0.30;;;19.20;61.10;;;;;;5096682;28;20016;-69
2022/09/15 10:27:14;;;;;;;3.20;0.75;;;19.10;61.90;;;;;;5082354;28;20028;-69
2022/09/15 10:29:40;;;;;;;2.65;0.82;;;19.00;62.30;;;;;;5087052;28;20498;-69
2022/09/15 10:32:20;;;;;;;0.50;0.30;;;18.90;62.40;;;;;;5076985;28;20028;-69
2022/09/15 10:34:47;;;;;;;6.30;1.38;;;18.80;62.60;;;;;;5112388;27;20112;-69
2022/09/15 10:37:35;;;;;;;0.57;0.20;;;18.80;62.90;;;;;;5081374;28;20038;-69
2022/09/15 10:40:09;;;;;;;1.55;0.57;;;18.80;63.10;;;;;;5089290;28;20396;-69
2022/09/15 10:42:50;;;;;;;0.38;0.38;;;18.90;62.90;;;;;;5072335;28;20425;-68
2022/09/15 10:45:36;;;;;;;1.02;0.43;;;18.70;63.80;;;;;;5083177;28;21360;-69
2022/09/15 10:48:18;;;;;;;2.10;0.50;;;18.50;64.80;;;;;;5076879;28;20166;-69
2022/09/15 10:50:47;;;;;;;0.32;0.30;;;18.40;66.20;;;;;;5081506;28;20043;-69
2022/09/15 10:53:33;;;;;;;2.35;0.50;;;18.30;66.80;;;;;;5079557;28;20491;-69
2022/09/15 10:56:13;;;;;;;2.72;0.50;;;18.30;67.20;;;;;;5079725;28;20016;-69
2022/09/15 10:58:47;;;;;;;0.40;0.40;;;18.30;67.50;;;;;;5079907;28;20020;-65
2022/09/15 11:01:30;;;;;;;0.55;0.50;;;18.40;67.50;;;;;;5082563;28;20541;-65
2022/09/15 11:04:43;;;;;;;1.85;0.65;;;18.60;67.00;;;;;;5069745;28;20044;-66
2022/09/15 11:07:26;;;;;;;0.30;0.20;;;18.70;66.00;;;;;;5077533;28;20024;-65
2022/09/15 11:09:56;;;;;;;0.38;0.20;;;18.70;66.00;;;;;;5074670;28;20076;-65
2022/09/15 11:13:02;;;;;;;0.20;0.20;;;18.90;65.80;;;;;;5079364;28;20498;-65
2022/09/15 11:15:57;;;;;;;1.00;0.82;;;19.10;65.30;;;;;;5080586;28;20068;-65
2022/09/15 11:18:41;;;;;;;1.58;0.50;;;19.40;64.70;;;;;;5072932;28;20016;-65
2022/09/15 11:21:33;;;;;;;1.10;0.77;;;19.40;63.70;;;;;;5073076;28;20361;-65
2022/09/15 11:24:13;;;;;;;0.30;0.30;;;19.50;63.70;;;;;;5073693;28;20047;-65
2022/09/15 11:26:42;;;;;;;0.32;0.32;;;19.60;63.20;;;;;;5079051;28;20035;-69
2022/09/15 11:29:32;;;;;;;0.80;0.32;;;19.60;63.10;;;;;;5076207;28;20021;-69
2022/09/15 11:32:05;;;;;;;0.40;0.40;;;19.60;62.50;;;;;;5082934;28;20394;-69
2022/09/15 11:34:59;;;;;;;1.80;0.50;;;19.60;62.30;;;;;;5079501;28;20020;-69
2022/09/15 11:37:52;;;;;;;0.32;0.32;;;19.70;61.70;;;;;;5071580;28;20040;-69
2022/09/15 11:40:29;;;;;;;3.85;0.70;;;19.80;61.80;;;;;;5073217;28;20032;-69
2022/09/15 11:43:32;;;;;;;0.32;0.32;;;19.80;61.50;;;;;;5078599;28;20441;-65
2022/09/15 11:45:59;;;;;;;0.45;0.45;;;19.80;61.50;;;;;;5086521;28;20395;-65
2022/09/15 11:48:46;;;;;;;0.65;0.65;;;19.90;61.70;;;;;;5077150;28;20025;-65
2022/09/15 11:51:16;;;;;;;1.90;0.55;;;20.10;61.10;;;;;;5088744;28;20075;-66
2022/09/15 11:53:51;;;;;;;0.80;0.60;;;20.30;60.60;;;;;;5086317;28;20048;-65
2022/09/15 11:56:22;;;;;;;1.40;0.30;;;20.40;59.50;;;;;;5086456;28;20028;-65
2022/09/15 11:59:26;;;;;;;1.20;0.50;;;20.50;59.20;;;;;;5076458;28;20056;-65
2022/09/15 12:02:19;;;;;;;2.72;0.73;;;20.70;58.60;;;;;;5089841;28;20822;-65
2022/09/15 12:05:09;;;;;;;3.25;0.70;;;20.60;57.80;;;;;;5080649;28;20059;-65
2022/09/15 12:07:51;;;;;;;0.65;0.28;;;20.70;57.50;;;;;;5073647;28;20071;-65
2022/09/15 12:10:21;;;;;;;0.30;0.30;;;20.70;57.70;;;;;;5083688;28;20056;-65
2022/09/15 12:12:50;;;;;;;0.73;0.30;;;21.00;57.10;;;;;;5077801;28;20494;-70
2022/09/15 12:15:18;;;;;;;0.98;0.30;;;21.10;56.40;;;;;;5077656;28;20040;-69
2022/09/15 12:18:04;;;;;;;2.70;0.45;;;21.50;56.60;;;;;;5086572;28;20048;-70
2022/09/15 12:20:47;;;;;;;1.83;1.45;;;21.90;55.50;;;;;;5078205;28;20020;-70
2022/09/15 12:23:24;;;;;;;0.75;0.68;;;22.10;53.50;;;;;;5070622;28;20027;-70
2022/09/15 12:26:01;;;;;;;1.75;0.43;;;22.10;53.40;;;;;;5080684;28;20021;-70
2022/09/15 12:28:50;;;;;;;1.88;0.52;;;22.30;53.20;;;;;;5074017;28;20021;-66
2022/09/15 12:31:22;;;;;;;0.50;0.45;;;22.40;52.60;;;;;;5070972;28;20032;-70
2022/09/15 12:34:00;;;;;;;1.77;0.47;;;22.20;53.50;;;;;;5076769;28;20013;-65
2022/09/15 12:36:33;;;;;;;0.38;0.30;;;22.10;53.80;;;;;;5070741;28;20497;-68
2022/09/15 12:39:00;;;;;;;1.70;1.02;;;21.80;54.30;;;;;;5082770;28;20540;-64
2022/09/15 12:41:27;;;;;;;1.77;0.95;;;21.60;53.90;;;;;;5089866;28;20103;-65
2022/09/15 12:43:54;;;;;;;0.88;0.30;;;21.20;54.10;;;;;;5099228;28;20035;-69
2022/09/15 12:46:20;;;;;;;1.55;0.70;;;20.90;54.10;;;;;;5091361;28;20028;-69
2022/09/15 12:48:45;;;;;;;1.10;0.60;;;20.60;54.90;;;;;;5090535;28;20024;-69
2022/09/15 12:51:21;;;;;;;1.60;0.30;;;20.50;55.70;;;;;;5089158;28;20076;-69
2022/09/15 12:53:55;;;;;;;0.32;0.32;;;20.40;56.20;;;;;;5089477;28;20020;-69
2022/09/15 12:56:27;;;;;;;0.30;0.30;;;20.30;56.80;;;;;;5092608;28;20020;-69
2022/09/15 12:58:54;;;;;;;2.97;0.38;;;20.40;57.10;;;;;;5093818;28;20135;-69
2022/09/15 13:01:25;;;;;;;0.40;0.40;;;20.50;57.10;;;;;;5083089;28;20035;-69
2022/09/15 13:03:54;;;;;;;0.65;0.30;;;20.60;56.80;;;;;;5091223;28;20051;-69
2022/09/15 13:06:23;;;;;;;0.50;0.50;;;20.90;56.30;;;;;;5090260;28;20126;-65
2022/09/15 13:09:05;;;;;;;3.08;0.70;;;21.10;55.80;;;;;;5091101;28;20044;-69
2022/09/15 13:11:36;;;;;;;0.73;0.63;;;21.50;55.00;;;;;;5090430;28;20024;-69
2022/09/15 13:14:02;;;;;;;12.40;0.63;;;22.00;54.10;;;;;;5091340;28;20031;-69